3T5

Fayette Regional Air Center Airport

La Grange, Texas, USA
METAR K3T5 190855Z AUTO 01003KT 10SM BKN024 OVC033 17/17 A3014 RMK AO2 T01730170
Observed Flight Rules
Oct-19 @ 08:55 UTC (11 minutes ago) Marginal Visual Flight Rules
Wind Visibility Clouds
10° at 3 knots 10 miles
  • Broken at 2,400' AGL
  • Overcast at 3,300' AGL
Temperatures Readings
Current 17°C / 63°F
Dewpoint 17°C / 63°F
Humidity 100%
Altimeter 30.14" Hg
Pressure 1021 hPa
Elevation 99
METAR K3T5 190855Z AUTO 01003KT 10SM BKN024 OVC033 17/17 A3014 RMK AO2 T01730170
Observed Flight Rules
Oct-19 @ 08:55 UTC
(11 minutes ago)
MVFR
Wind Visibility
10° at 3 knots 10 miles
Clouds
  • Broken at 2,400' AGL
  • Overcast at 3,300' AGL
Temperature Dewpoint
17°C / 63°F 17°C / 63°F
Humidity Altimeter Pressure
100% 30.14" Hg 1021 hPa